createdAt,value
2022-08-30T00:00:58.279Z,99584.59
2022-08-30T00:03:48.069Z,99582.34
2022-08-30T00:06:36.523Z,99586.53
2022-08-30T00:09:23.950Z,99581.50
2022-08-30T00:12:11.734Z,99585.88
2022-08-30T00:14:59.153Z,99588.31
2022-08-30T00:17:47.075Z,99595.56
2022-08-30T00:20:36.596Z,99581.66
2022-08-30T00:23:25.819Z,99580.00
2022-08-30T00:26:12.968Z,99575.00
2022-08-30T00:29:00.253Z,99580.97
2022-08-30T00:31:47.895Z,99577.59
2022-08-30T00:34:35.507Z,99576.78
2022-08-30T00:37:24.034Z,99585.53
2022-08-30T00:40:15.981Z,99575.31
2022-08-30T00:43:08.581Z,99573.50
2022-08-30T00:46:04.426Z,99588.28
2022-08-30T00:48:53.005Z,99575.31
2022-08-30T00:51:41.830Z,99589.06
2022-08-30T00:54:30.710Z,99571.88
2022-08-30T00:57:20.056Z,99592.63
2022-08-30T01:00:09.937Z,99594.41
2022-08-30T01:02:58.740Z,99598.13
2022-08-30T01:05:47.639Z,99601.66
2022-08-30T01:08:35.621Z,99595.69
2022-08-30T01:11:26.252Z,99594.88
2022-08-30T01:14:17.267Z,99595.03
2022-08-30T01:17:06.207Z,99589.97
2022-08-30T01:19:58.053Z,99586.75
2022-08-30T01:23:02.329Z,99593.03
2022-08-30T01:25:51.997Z,99588.00
2022-08-30T01:28:42.094Z,99595.94
2022-08-30T01:31:29.485Z,99598.53
2022-08-30T01:34:17.257Z,99598.69
2022-08-30T01:37:04.721Z,99598.69
2022-08-30T01:39:53.323Z,99594.47
2022-08-30T01:42:40.455Z,99592.84
2022-08-30T01:45:27.734Z,99584.41
2022-08-30T01:48:15.285Z,99583.56
2022-08-30T01:51:03.984Z,99586.31
2022-08-30T01:53:51.618Z,99587.97
2022-08-30T01:56:40.380Z,99591.50
2022-08-30T01:59:28.459Z,99593.44
2022-08-30T02:02:16.925Z,99582.41
2022-08-30T02:05:06.228Z,99576.53
2022-08-30T02:07:53.892Z,99575.91
2022-08-30T02:10:42.070Z,99568.13
2022-08-30T02:13:31.395Z,99570.72
2022-08-30T02:16:23.098Z,99575.22
2022-08-30T02:19:11.523Z,99577.16
2022-08-30T02:22:00.166Z,99584.00
2022-08-30T02:24:47.678Z,99585.91
2022-08-30T02:27:35.173Z,99580.06
2022-08-30T02:30:24.050Z,99574.06
2022-08-30T02:33:11.403Z,99575.84
2022-08-30T02:35:59.005Z,99579.38
2022-08-30T02:38:47.759Z,99569.34
2022-08-30T02:41:35.468Z,99568.50
2022-08-30T02:44:22.853Z,99570.97
2022-08-30T02:46:57.205Z,99564.97
2022-08-30T02:49:44.412Z,99562.50
2022-08-30T02:52:32.020Z,99564.44
2022-08-30T02:55:20.118Z,99567.03
2022-08-30T02:58:08.169Z,99573.81
2022-08-30T03:00:55.525Z,99567.03
2022-08-30T03:03:46.974Z,99562.63
2022-08-30T03:06:34.137Z,99556.78
2022-08-30T03:09:21.198Z,99555.97
2022-08-30T03:12:10.178Z,99552.88
2022-08-30T03:14:57.426Z,99558.19
2022-08-30T03:17:44.759Z,99559.31
2022-08-30T03:20:35.109Z,99567.25
2022-08-30T03:23:22.386Z,99553.63
2022-08-30T03:26:10.653Z,99555.53
2022-08-30T03:28:57.855Z,99541.13
2022-08-30T03:31:53.403Z,99546.28
2022-08-30T03:35:01.509Z,99553.41
2022-08-30T03:37:50.292Z,99543.38
2022-08-30T03:40:43.708Z,99545.97
2022-08-30T03:43:33.261Z,99545.28
2022-08-30T03:46:20.707Z,99544.47
2022-08-30T03:49:14.183Z,99548.97
2022-08-30T03:52:01.269Z,99544.75
2022-08-30T03:54:49.799Z,99542.31
2022-08-30T03:57:36.982Z,99546.69
2022-08-30T04:00:24.168Z,99543.41
2022-08-30T04:03:11.306Z,99551.19
2022-08-30T04:05:58.725Z,99545.38
2022-08-30T04:08:46.147Z,99545.38
2022-08-30T04:11:34.934Z,99548.09
2022-08-30T04:14:23.393Z,99545.50
2022-08-30T04:17:10.567Z,99545.66
2022-08-30T04:19:58.113Z,99544.03
2022-08-30T04:22:45.384Z,99552.91
2022-08-30T04:25:32.642Z,99549.50
2022-08-30T04:28:21.530Z,99543.66
2022-08-30T04:31:14.437Z,99558.50
2022-08-30T04:34:02.511Z,99552.53
2022-08-30T04:36:50.535Z,99549.94
2022-08-30T04:39:37.649Z,99551.72
2022-08-30T04:42:25.500Z,99552.69
2022-08-30T04:45:17.709Z,99559.66
2022-08-30T04:48:05.353Z,99559.75
2022-08-30T04:50:52.743Z,99560.75
2022-08-30T04:53:40.008Z,99559.91
2022-08-30T04:56:27.723Z,99552.16
2022-08-30T04:59:15.230Z,99555.56
2022-08-30T05:02:03.916Z,99563.34
2022-08-30T05:05:09.310Z,99556.53
2022-08-30T05:07:56.659Z,99572.22
2022-08-30T05:10:46.421Z,99574.94
2022-08-30T05:13:35.518Z,99577.81
2022-08-30T05:16:24.282Z,99573.63
2022-08-30T05:19:13.184Z,99583.13
2022-08-30T05:22:00.571Z,99575.53
2022-08-30T05:24:47.827Z,99578.13
2022-08-30T05:27:37.587Z,99577.31
2022-08-30T05:30:27.797Z,99577.31
2022-08-30T05:33:15.111Z,99579.06
2022-08-30T05:36:07.259Z,99594.47
2022-08-30T05:38:55.077Z,99591.91
2022-08-30T05:41:42.682Z,99592.69
2022-08-30T05:44:31.100Z,99589.31
2022-08-30T05:47:18.348Z,99590.09
2022-08-30T05:50:08.148Z,99589.16
2022-08-30T05:52:57.341Z,99595.94
2022-08-30T05:55:44.647Z,99596.63
2022-08-30T05:58:32.146Z,99592.94
2022-08-30T06:01:26.223Z,99587.59
2022-08-30T06:04:14.833Z,99586.66
2022-08-30T06:07:02.233Z,99581.00
2022-08-30T06:09:50.932Z,99586.88
2022-08-30T06:12:38.079Z,99589.97
2022-08-30T06:15:25.376Z,99595.69
2022-08-30T06:18:13.165Z,99593.63
2022-08-30T06:21:00.344Z,99582.94
2022-08-30T06:23:47.826Z,99586.88
2022-08-30T06:26:41.889Z,99590.09
2022-08-30T06:29:29.328Z,99582.88
2022-08-30T06:32:16.655Z,99580.13
2022-08-30T06:35:04.015Z,99578.84
2022-08-30T06:37:51.884Z,99577.75
2022-08-30T06:40:39.141Z,99585.09
2022-08-30T06:43:27.895Z,99583.16
2022-08-30T06:46:18.629Z,99578.66
2022-08-30T06:49:07.581Z,99583.53
2022-08-30T06:51:55.300Z,99580.66
2022-08-30T06:54:42.731Z,99583.78
2022-08-30T06:57:29.815Z,99584.41
2022-08-30T07:00:19.627Z,99588.50
2022-08-30T07:03:07.201Z,99584.94
2022-08-30T07:05:54.453Z,99597.59
2022-08-30T07:08:42.521Z,99591.28
2022-08-30T07:11:32.978Z,99592.78
2022-08-30T07:14:20.084Z,99592.47
2022-08-30T07:17:24.594Z,99596.53
2022-08-30T07:20:12.238Z,99601.56
2022-08-30T07:22:59.579Z,99600.28
2022-08-30T07:25:46.994Z,99602.63
2022-08-30T07:28:36.053Z,99609.13
2022-08-30T07:31:23.098Z,99603.63
2022-08-30T07:34:12.122Z,99601.53
2022-08-30T07:36:59.409Z,99604.63
2022-08-30T07:39:47.943Z,99601.59
2022-08-30T07:42:35.198Z,99603.72
2022-08-30T07:45:44.833Z,99609.44
2022-08-30T07:48:32.356Z,99599.53
2022-08-30T07:51:25.592Z,99606.88
2022-08-30T07:54:12.607Z,99611.59
2022-08-30T07:56:59.911Z,99606.94
2022-08-30T07:59:47.331Z,99604.84
2022-08-30T08:02:34.713Z,99602.75
2022-08-30T08:05:24.737Z,99608.31
2022-08-30T08:08:15.426Z,99605.22
2022-08-30T08:11:09.224Z,99606.72
2022-08-30T08:13:56.944Z,99602.03
2022-08-30T08:16:44.881Z,99607.84
2022-08-30T08:19:32.316Z,99601.53
2022-08-30T08:22:21.378Z,99598.66
2022-08-30T08:25:10.894Z,99602.69
2022-08-30T08:27:58.333Z,99602.56
2022-08-30T08:30:48.283Z,99600.63
2022-08-30T08:33:35.841Z,99606.47
2022-08-30T08:36:23.515Z,99600.16
2022-08-30T08:39:11.095Z,99601.47
2022-08-30T08:42:09.637Z,99604.88
2022-08-30T08:45:10.787Z,99593.38
2022-08-30T08:48:04.540Z,99605.38
2022-08-30T08:51:05.945Z,99598.22
2022-08-30T08:54:02.044Z,99591.13
2022-08-30T08:56:49.639Z,99591.13
2022-08-30T08:59:38.719Z,99589.00
2022-08-30T09:02:29.715Z,99587.22
2022-08-30T09:05:25.984Z,99589.66
2022-08-30T09:08:16.629Z,99586.91
2022-08-30T09:11:11.256Z,99592.75
2022-08-30T09:13:58.273Z,99582.84
2022-08-30T09:16:58.323Z,99592.78
2022-08-30T09:20:01.076Z,99579.19
2022-08-30T09:22:48.624Z,99579.53
2022-08-30T09:25:38.716Z,99581.63
2022-08-30T09:28:31.041Z,99571.41
2022-08-30T09:31:21.807Z,99567.19
2022-08-30T09:34:20.465Z,99561.03
2022-08-30T09:37:27.230Z,99567.22
2022-08-30T09:40:22.833Z,99564.63
2022-08-30T09:43:20.899Z,99560.72
2022-08-30T09:46:16.399Z,99561.19
2022-08-30T09:49:04.119Z,99564.94
2022-08-30T09:52:13.628Z,99557.28
2022-08-30T09:55:24.988Z,99561.69
2022-08-30T09:58:29.342Z,99554.19
2022-08-30T10:01:23.799Z,99550.94
2022-08-30T10:04:20.552Z,99543.28
2022-08-30T10:07:17.121Z,99544.25
2022-08-30T10:10:12.182Z,99539.81
2022-08-30T10:13:19.801Z,99537.34
2022-08-30T10:16:23.621Z,99532.22
2022-08-30T10:19:29.620Z,99529.16
2022-08-30T10:22:26.338Z,99525.28
2022-08-30T10:25:19.124Z,99519.34
2022-08-30T10:28:14.688Z,99512.00
2022-08-30T10:31:07.261Z,99510.75
2022-08-30T10:34:06.501Z,99511.03
2022-08-30T10:37:00.917Z,99511.03
2022-08-30T10:39:53.059Z,99511.06
2022-08-30T10:42:43.612Z,99517.63
2022-08-30T10:45:34.915Z,99516.88
2022-08-30T10:48:29.738Z,99510.28
2022-08-30T10:51:26.417Z,99511.28
2022-08-30T10:54:22.396Z,99505.81
2022-08-30T10:57:11.612Z,99508.88
2022-08-30T11:00:07.721Z,99506.56
2022-08-30T11:03:50.763Z,99504.28
2022-08-30T11:06:47.161Z,99497.06
2022-08-30T11:10:06.368Z,99495.91
2022-08-30T11:13:01.360Z,99496.97
2022-08-30T11:16:01.237Z,99499.84
2022-08-30T11:18:52.359Z,99498.31
2022-08-30T11:21:42.485Z,99502.59
2022-08-30T11:24:30.380Z,99494.03
2022-08-30T11:27:52.071Z,99500.13
2022-08-30T11:30:53.568Z,99499.84
2022-08-30T11:33:50.427Z,99494.50
2022-08-30T11:37:09.851Z,99496.03
2022-08-30T11:40:03.797Z,99491.16
2022-08-30T11:42:54.149Z,99488.09
2022-08-30T11:45:52.612Z,99503.09
2022-08-30T11:48:54.513Z,99491.59
2022-08-30T11:52:28.415Z,99484.78
2022-08-30T11:55:40.171Z,99487.63
2022-08-30T11:58:43.900Z,99490.72
2022-08-30T12:01:50.292Z,99490.09
2022-08-30T12:04:47.155Z,99487.81
2022-08-30T12:07:59.010Z,99487.19
2022-08-30T12:10:50.021Z,99484.78
2022-08-30T12:13:55.582Z,99484.78
2022-08-30T12:17:02.717Z,99478.28
2022-08-30T12:19:50.908Z,99470.19
2022-08-30T12:22:40.596Z,99473.94
2022-08-30T12:25:33.203Z,99472.97
2022-08-30T12:28:26.126Z,99472.31
2022-08-30T12:31:18.075Z,99467.63
2022-08-30T12:34:08.155Z,99468.59
2022-08-30T12:37:03.016Z,99467.16
2022-08-30T12:40:04.048Z,99463.91
2022-08-30T12:42:59.259Z,99461.94
2022-08-30T12:45:50.547Z,99459.00
2022-08-30T12:48:40.700Z,99453.63
2022-08-30T12:51:41.183Z,99451.66
2022-08-30T12:54:31.878Z,99460.13
2022-08-30T12:57:39.172Z,99445.28
2022-08-30T13:00:30.707Z,99449.34
2022-08-30T13:03:34.278Z,99443.63
2022-08-30T13:06:43.893Z,99442.63
2022-08-30T13:09:34.678Z,99444.25
2022-08-30T13:12:26.058Z,99447.31
2022-08-30T13:15:20.305Z,99445.19
2022-08-30T13:18:26.624Z,99438.66
2022-08-30T13:21:25.600Z,99431.47
2022-08-30T13:24:15.662Z,99431.31
2022-08-30T13:27:12.669Z,99420.06
2022-08-30T13:30:08.533Z,99419.91
2022-08-30T13:33:02.173Z,99411.91
2022-08-30T13:35:49.730Z,99414.97
2022-08-30T13:38:37.369Z,99418.03
2022-08-30T13:41:30.149Z,99404.69
2022-08-30T13:44:21.756Z,99404.69
2022-08-30T13:50:19.746Z,99412.66
2022-08-30T13:53:09.336Z,99399.81
2022-08-30T13:55:57.279Z,99408.59
2022-08-30T13:58:46.126Z,99403.75
2022-08-30T14:02:07.553Z,99401.50
2022-08-30T14:04:41.581Z,99398.59
2022-08-30T14:07:29.466Z,99401.38
2022-08-30T14:10:43.400Z,99394.72
2022-08-30T14:13:29.191Z,99392.81
2022-08-30T14:16:33.071Z,99390.56
2022-08-30T14:19:20.441Z,99388.63
2022-08-30T14:22:07.861Z,99379.56
2022-08-30T14:24:55.593Z,99376.34
2022-08-30T14:27:42.998Z,99373.72
2022-08-30T14:30:30.443Z,99367.56
2022-08-30T14:33:19.431Z,99367.19
2022-08-30T14:36:12.383Z,99363.78
2022-08-30T14:39:02.554Z,99362.97
2022-08-30T14:41:56.667Z,99360.72
2022-08-30T14:44:55.678Z,99354.06
2022-08-30T14:47:43.505Z,99354.06
2022-08-30T14:50:32.356Z,99349.31
2022-08-30T14:53:19.587Z,99345.56
2022-08-30T14:56:10.385Z,99343.94
2022-08-30T14:59:02.883Z,99344.13
2022-08-30T15:01:50.611Z,99348.69
2022-08-30T15:04:38.066Z,99341.06
2022-08-30T15:07:27.047Z,99333.41
2022-08-30T15:10:14.913Z,99336.03
2022-08-30T15:13:04.882Z,99334.03
2022-08-30T15:15:52.598Z,99334.31
2022-08-30T15:18:41.683Z,99325.38
2022-08-30T15:21:31.712Z,99320.63
2022-08-30T15:24:27.670Z,99326.25
2022-08-30T15:27:16.925Z,99322.88
2022-08-30T15:30:07.542Z,99315.69
2022-08-30T15:32:54.985Z,99316.31
2022-08-30T15:35:42.240Z,99317.78
2022-08-30T15:38:30.027Z,99314.00
2022-08-30T15:41:18.586Z,99316.25
2022-08-30T15:44:06.498Z,99313.47
2022-08-30T15:46:54.486Z,99316.53
2022-08-30T15:49:42.559Z,99311.94
2022-08-30T15:52:30.615Z,99313.38
2022-08-30T15:55:17.801Z,99312.41
2022-08-30T15:58:06.559Z,99306.84
2022-08-30T16:00:54.000Z,99307.66
2022-08-30T16:03:42.757Z,99311.88
2022-08-30T16:06:34.725Z,99313.66
2022-08-30T16:09:22.294Z,99309.28
2022-08-30T16:12:10.271Z,99308.13
2022-08-30T16:14:59.105Z,99305.50
2022-08-30T16:17:46.384Z,99313.19
2022-08-30T16:20:35.109Z,99313.00
2022-08-30T16:23:22.476Z,99311.84
2022-08-30T16:26:12.134Z,99309.03
2022-08-30T16:29:02.416Z,99304.03
2022-08-30T16:31:52.062Z,99308.22
2022-08-30T16:34:39.557Z,99310.66
2022-08-30T16:37:26.957Z,99303.00
2022-08-30T16:40:15.496Z,99300.41
2022-08-30T16:43:03.952Z,99302.22
2022-08-30T16:45:53.776Z,99302.22
2022-08-30T16:48:44.639Z,99296.22
2022-08-30T16:51:34.539Z,99299.59
2022-08-30T16:54:22.694Z,99298.81
2022-08-30T16:57:10.292Z,99296.22
2022-08-30T16:59:57.761Z,99304.03
2022-08-30T17:02:46.644Z,99294.41
2022-08-30T17:05:43.175Z,99291.16
2022-08-30T17:08:32.394Z,99298.16
2022-08-30T17:11:19.597Z,99300.16
2022-08-30T17:14:06.849Z,99312.34
2022-08-30T17:16:55.656Z,99308.94
2022-08-30T17:19:43.313Z,99298.88
2022-08-30T17:22:32.060Z,99307.66
2022-08-30T17:25:19.923Z,99306.03
2022-08-30T17:28:07.994Z,99305.22
2022-08-30T17:30:55.865Z,99313.19
2022-08-30T17:33:45.543Z,99315.19
2022-08-30T17:36:35.626Z,99317.97
2022-08-30T17:39:25.294Z,99321.56
2022-08-30T17:42:12.506Z,99322.72
2022-08-30T17:45:03.962Z,99329.91
2022-08-30T17:47:54.468Z,99323.44
2022-08-30T17:50:41.597Z,99328.00
2022-08-30T17:53:29.789Z,99330.97
2022-08-30T17:56:18.539Z,99332.31
2022-08-30T17:59:08.087Z,99346.47
2022-08-30T18:01:57.430Z,99346.00
2022-08-30T18:04:46.851Z,99347.16
2022-08-30T18:07:33.899Z,99352.72
2022-08-30T18:13:29.721Z,99345.78
2022-08-30T18:16:21.480Z,99351.00
2022-08-30T18:19:13.559Z,99357.53
2022-08-30T18:22:03.211Z,99350.06
2022-08-30T18:24:51.040Z,99350.44
2022-08-30T18:27:39.360Z,99359.56
2022-08-30T18:30:34.740Z,99362.81
2022-08-30T18:33:29.378Z,99363.34
2022-08-30T18:36:17.178Z,99358.50
2022-08-30T18:39:05.501Z,99363.22
2022-08-30T18:41:54.780Z,99370.53
2022-08-30T18:44:44.363Z,99376.28
2022-08-30T18:47:33.553Z,99373.19
2022-08-30T18:50:23.129Z,99376.16
2022-08-30T18:53:12.144Z,99370.47
2022-08-30T18:56:00.541Z,99373.59
2022-08-30T18:58:48.633Z,99376.38
2022-08-30T19:01:36.250Z,99382.72
2022-08-30T19:04:35.071Z,99378.66
2022-08-30T19:07:28.877Z,99379.00
2022-08-30T19:10:26.013Z,99382.75
2022-08-30T19:13:13.546Z,99382.09
2022-08-30T19:16:00.999Z,99381.63
2022-08-30T19:18:48.352Z,99394.78
2022-08-30T19:21:37.425Z,99389.75
2022-08-30T19:24:24.709Z,99391.72
2022-08-30T19:27:12.200Z,99389.47
2022-08-30T19:30:00.364Z,99398.25
2022-08-30T19:32:48.741Z,99396.97
2022-08-30T19:35:35.872Z,99401.31
2022-08-30T19:38:24.951Z,99393.03
2022-08-30T19:41:13.983Z,99400.19
2022-08-30T19:44:03.068Z,99405.56
2022-08-30T19:46:52.654Z,99403.28
2022-08-30T19:49:40.945Z,99403.47
2022-08-30T19:52:30.622Z,99405.41
2022-08-30T19:55:23.922Z,99408.19
2022-08-30T19:58:16.654Z,99422.31
2022-08-30T20:01:10.628Z,99416.47
2022-08-30T20:04:01.886Z,99428.03
2022-08-30T20:06:49.260Z,99415.19
2022-08-30T20:09:36.713Z,99418.75
2022-08-30T20:12:25.593Z,99416.50
2022-08-30T20:15:15.231Z,99415.84
2022-08-30T20:18:05.493Z,99412.44
2022-08-30T20:20:55.179Z,99428.03
2022-08-30T20:23:43.015Z,99425.44
2022-08-30T20:24:27.155Z,99348.69
2022-08-30T20:26:33.943Z,99431.94
2022-08-30T20:29:23.069Z,99427.53
2022-08-30T20:32:10.359Z,99432.38
2022-08-30T20:34:59.061Z,99430.44
2022-08-30T20:37:46.889Z,99426.88
2022-08-30T20:40:36.121Z,99419.53
2022-08-30T20:43:26.371Z,99419.38
2022-08-30T20:46:18.352Z,99417.59
2022-08-30T20:49:05.970Z,99418.41
2022-08-30T20:51:54.103Z,99417.25
2022-08-30T20:54:41.391Z,99420.66
2022-08-30T20:57:28.865Z,99410.25
2022-08-30T21:00:17.087Z,99415.47
2022-08-30T21:03:11.388Z,99411.09
2022-08-30T21:06:15.233Z,99417.91
2022-08-30T21:09:02.652Z,99413.53
2022-08-30T21:11:50.310Z,99416.13
2022-08-30T21:14:37.479Z,99417.75
2022-08-30T21:17:26.422Z,99420.34
2022-08-30T21:20:15.268Z,99415.94
2022-08-30T21:23:02.362Z,99419.34
2022-08-30T21:25:50.421Z,99419.34
2022-08-30T21:28:38.807Z,99425.38
2022-08-30T21:31:30.204Z,99421.94
2022-08-30T21:34:19.040Z,99425.53
2022-08-30T21:37:06.775Z,99428.94
2022-08-30T21:39:54.979Z,99426.34
2022-08-30T21:42:42.088Z,99424.72
2022-08-30T21:45:29.367Z,99424.88
2022-08-30T21:48:17.348Z,99429.47
2022-08-30T21:51:08.191Z,99429.47
2022-08-30T21:53:58.660Z,99434.81
2022-08-30T21:56:49.361Z,99438.22
2022-08-30T21:59:36.568Z,99442.63
2022-08-30T22:02:23.615Z,99453.00
2022-08-30T22:05:11.367Z,99457.38
2022-08-30T22:08:01.125Z,99457.38
2022-08-30T22:10:50.125Z,99459.19
2022-08-30T22:13:38.483Z,99460.16
2022-08-30T22:16:27.334Z,99459.34
2022-08-30T22:19:14.791Z,99468.91
2022-08-30T22:22:02.532Z,99464.56
2022-08-30T22:24:49.892Z,99469.09
2022-08-30T22:27:38.541Z,99473.50
2022-08-30T22:30:26.006Z,99472.66
2022-08-30T22:33:15.296Z,99471.84
2022-08-30T22:36:07.991Z,99473.66
2022-08-30T22:38:57.681Z,99484.06
2022-08-30T22:41:44.823Z,99480.78
2022-08-30T22:44:33.574Z,99468.75
2022-08-30T22:47:20.812Z,99471.38
2022-08-30T22:50:09.199Z,99477.56
2022-08-30T22:52:56.338Z,99476.72
2022-08-30T22:55:43.461Z,99481.13
2022-08-30T22:58:31.414Z,99469.91
2022-08-30T23:01:29.154Z,99483.06
2022-08-30T23:04:16.250Z,99478.03
2022-08-30T23:07:03.905Z,99477.06
2022-08-30T23:09:51.039Z,99476.25
2022-08-30T23:12:39.123Z,99478.19
2022-08-30T23:15:28.317Z,99480.97
2022-08-30T23:18:16.999Z,99479.34
2022-08-30T23:21:06.417Z,99484.69
2022-08-30T23:24:17.344Z,99481.31
2022-08-30T23:27:22.194Z,99487.63
2022-08-30T23:30:28.668Z,99488.59
2022-08-30T23:33:35.148Z,99487.94
2022-08-30T23:36:39.552Z,99481.16
2022-08-30T23:39:44.082Z,99488.09
2022-08-30T23:42:48.459Z,99488.09
2022-08-30T23:45:53.401Z,99480.47
2022-08-30T23:48:59.515Z,99489.25
2022-08-30T23:52:04.028Z,99486.63
2022-08-30T23:55:08.622Z,99481.44
2022-08-30T23:58:13.241Z,99476.25
